sensor_id;sensor_type;location;lat;lon;timestamp;P1;durP1;ratioP1;P2;durP2;ratioP2
57822;SDS011;43650;48.064;20.624;2023-08-21T00:00:08;13.32;;;9.63;;
57822;SDS011;43650;48.064;20.624;2023-08-21T00:01:08;15.73;;;10.63;;
57822;SDS011;43650;48.064;20.624;2023-08-21T00:02:09;15.13;;;9.13;;
57822;SDS011;43650;48.064;20.624;2023-08-21T00:03:09;17.43;;;11.80;;
57822;SDS011;43650;48.064;20.624;2023-08-21T00:04:10;13.67;;;10.30;;
57822;SDS011;43650;48.064;20.624;2023-08-21T00:05:10;11.10;;;9.35;;
57822;SDS011;43650;48.064;20.624;2023-08-21T00:06:11;13.90;;;10.13;;
57822;SDS011;43650;48.064;20.624;2023-08-21T00:07:11;16.57;;;10.10;;
57822;SDS011;43650;48.064;20.624;2023-08-21T00:08:12;14.63;;;10.35;;
57822;SDS011;43650;48.064;20.624;2023-08-21T00:09:12;13.17;;;9.93;;
57822;SDS011;43650;48.064;20.624;2023-08-21T00:10:12;14.13;;;10.53;;
57822;SDS011;43650;48.064;20.624;2023-08-21T00:11:14;12.75;;;9.57;;
57822;SDS011;43650;48.064;20.624;2023-08-21T00:12:14;16.87;;;11.10;;
57822;SDS011;43650;48.064;20.624;2023-08-21T00:13:14;11.73;;;9.37;;
57822;SDS011;43650;48.064;20.624;2023-08-21T00:14:15;11.27;;;9.27;;
57822;SDS011;43650;48.064;20.624;2023-08-21T00:15:15;14.10;;;9.33;;
57822;SDS011;43650;48.064;20.624;2023-08-21T00:16:16;12.15;;;10.10;;
57822;SDS011;43650;48.064;20.624;2023-08-21T00:17:17;14.48;;;10.68;;
57822;SDS011;43650;48.064;20.624;2023-08-21T00:18:17;12.17;;;9.33;;
57822;SDS011;43650;48.064;20.624;2023-08-21T00:19:18;13.62;;;10.88;;
57822;SDS011;43650;48.064;20.624;2023-08-21T00:20:18;13.07;;;10.47;;
57822;SDS011;43650;48.064;20.624;2023-08-21T00:21:19;14.40;;;9.82;;
57822;SDS011;43650;48.064;20.624;2023-08-21T00:22:20;12.18;;;9.40;;
57822;SDS011;43650;48.064;20.624;2023-08-21T00:23:20;14.53;;;10.53;;
57822;SDS011;43650;48.064;20.624;2023-08-21T00:24:21;12.57;;;10.80;;
57822;SDS011;43650;48.064;20.624;2023-08-21T00:25:21;13.77;;;10.13;;
57822;SDS011;43650;48.064;20.624;2023-08-21T00:26:22;12.90;;;10.10;;
57822;SDS011;43650;48.064;20.624;2023-08-21T00:27:22;15.80;;;10.40;;
57822;SDS011;43650;48.064;20.624;2023-08-21T00:28:23;12.07;;;10.20;;
57822;SDS011;43650;48.064;20.624;2023-08-21T00:29:23;13.57;;;8.77;;
57822;SDS011;43650;48.064;20.624;2023-08-21T00:30:24;15.27;;;10.63;;
57822;SDS011;43650;48.064;20.624;2023-08-21T00:31:24;12.73;;;10.10;;
57822;SDS011;43650;48.064;20.624;2023-08-21T00:32:25;13.43;;;10.38;;
57822;SDS011;43650;48.064;20.624;2023-08-21T00:33:25;14.07;;;10.07;;
57822;SDS011;43650;48.064;20.624;2023-08-21T00:34:25;13.37;;;10.77;;
57822;SDS011;43650;48.064;20.624;2023-08-21T00:35:26;12.73;;;9.87;;
57822;SDS011;43650;48.064;20.624;2023-08-21T00:36:26;14.03;;;10.87;;
57822;SDS011;43650;48.064;20.624;2023-08-21T00:37:27;13.50;;;10.47;;
57822;SDS011;43650;48.064;20.624;2023-08-21T00:38:27;14.67;;;10.77;;
57822;SDS011;43650;48.064;20.624;2023-08-21T00:39:27;13.63;;;10.47;;
57822;SDS011;43650;48.064;20.624;2023-08-21T00:40:28;14.53;;;10.67;;
57822;SDS011;43650;48.064;20.624;2023-08-21T00:41:28;13.77;;;9.90;;
57822;SDS011;43650;48.064;20.624;2023-08-21T00:42:29;15.57;;;11.27;;
57822;SDS011;43650;48.064;20.624;2023-08-21T00:43:29;13.43;;;11.00;;
57822;SDS011;43650;48.064;20.624;2023-08-21T00:44:29;16.87;;;9.83;;
57822;SDS011;43650;48.064;20.624;2023-08-21T00:45:30;11.90;;;9.43;;
57822;SDS011;43650;48.064;20.624;2023-08-21T00:46:31;15.73;;;11.00;;
57822;SDS011;43650;48.064;20.624;2023-08-21T00:48:32;12.18;;;9.95;;
57822;SDS011;43650;48.064;20.624;2023-08-21T00:49:33;14.50;;;10.30;;
57822;SDS011;43650;48.064;20.624;2023-08-21T00:50:33;13.45;;;10.18;;
57822;SDS011;43650;48.064;20.624;2023-08-21T00:51:34;12.25;;;10.73;;
57822;SDS011;43650;48.064;20.624;2023-08-21T00:52:35;13.67;;;10.67;;
57822;SDS011;43650;48.064;20.624;2023-08-21T00:53:36;15.13;;;10.55;;
57822;SDS011;43650;48.064;20.624;2023-08-21T00:54:36;14.23;;;10.77;;
57822;SDS011;43650;48.064;20.624;2023-08-21T00:55:37;12.67;;;9.87;;
57822;SDS011;43650;48.064;20.624;2023-08-21T00:56:38;13.32;;;10.65;;
57822;SDS011;43650;48.064;20.624;2023-08-21T00:57:39;12.05;;;9.70;;
57822;SDS011;43650;48.064;20.624;2023-08-21T00:58:39;13.65;;;11.20;;
57822;SDS011;43650;48.064;20.624;2023-08-21T00:59:40;14.82;;;10.70;;
57822;SDS011;43650;48.064;20.624;2023-08-21T01:00:41;13.73;;;10.27;;
57822;SDS011;43650;48.064;20.624;2023-08-21T01:02:42;13.05;;;9.18;;
57822;SDS011;43650;48.064;20.624;2023-08-21T01:03:42;12.85;;;10.70;;
57822;SDS011;43650;48.064;20.624;2023-08-21T01:04:43;14.97;;;11.40;;
57822;SDS011;43650;48.064;20.624;2023-08-21T01:05:44;13.62;;;10.40;;
57822;SDS011;43650;48.064;20.624;2023-08-21T01:06:44;14.18;;;10.18;;
57822;SDS011;43650;48.064;20.624;2023-08-21T01:07:47;12.85;;;10.70;;
57822;SDS011;43650;48.064;20.624;2023-08-21T01:09:02;13.52;;;10.73;;
57822;SDS011;43650;48.064;20.624;2023-08-21T01:10:11;12.20;;;10.43;;
57822;SDS011;43650;48.064;20.624;2023-08-21T01:14:36;13.95;;;10.32;;
57822;SDS011;43650;48.064;20.624;2023-08-21T01:15:44;13.85;;;10.38;;
57822;SDS011;43650;48.064;20.624;2023-08-21T01:16:45;13.30;;;10.35;;
57822;SDS011;43650;48.064;20.624;2023-08-21T01:17:47;12.95;;;9.65;;
57822;SDS011;43650;48.064;20.624;2023-08-21T01:18:49;13.23;;;10.30;;
57822;SDS011;43650;48.064;20.624;2023-08-21T01:19:50;13.00;;;10.57;;
57822;SDS011;43650;48.064;20.624;2023-08-21T01:20:50;17.87;;;10.88;;
57822;SDS011;43650;48.064;20.624;2023-08-21T01:21:51;15.27;;;10.88;;
57822;SDS011;43650;48.064;20.624;2023-08-21T01:22:52;14.73;;;11.40;;
57822;SDS011;43650;48.064;20.624;2023-08-21T01:23:52;13.40;;;10.90;;
57822;SDS011;43650;48.064;20.624;2023-08-21T01:24:55;12.97;;;10.47;;
57822;SDS011;43650;48.064;20.624;2023-08-21T01:25:56;14.38;;;11.20;;
57822;SDS011;43650;48.064;20.624;2023-08-21T01:26:56;12.30;;;9.83;;
57822;SDS011;43650;48.064;20.624;2023-08-21T01:27:57;13.70;;;10.57;;
57822;SDS011;43650;48.064;20.624;2023-08-21T01:28:57;17.23;;;11.27;;
57822;SDS011;43650;48.064;20.624;2023-08-21T01:29:58;15.83;;;11.10;;
57822;SDS011;43650;48.064;20.624;2023-08-21T01:32:31;16.25;;;11.07;;
57822;SDS011;43650;48.064;20.624;2023-08-21T01:33:40;15.63;;;10.95;;
57822;SDS011;43650;48.064;20.624;2023-08-21T01:34:45;16.55;;;11.10;;
57822;SDS011;43650;48.064;20.624;2023-08-21T01:35:46;13.88;;;11.18;;
57822;SDS011;43650;48.064;20.624;2023-08-21T01:36:47;16.20;;;11.07;;
57822;SDS011;43650;48.064;20.624;2023-08-21T01:37:48;14.27;;;10.88;;
57822;SDS011;43650;48.064;20.624;2023-08-21T01:38:48;13.13;;;10.32;;
57822;SDS011;43650;48.064;20.624;2023-08-21T01:39:49;15.10;;;11.13;;
57822;SDS011;43650;48.064;20.624;2023-08-21T01:40:49;12.97;;;10.73;;
57822;SDS011;43650;48.064;20.624;2023-08-21T01:41:50;13.07;;;10.63;;
57822;SDS011;43650;48.064;20.624;2023-08-21T01:42:52;14.87;;;11.13;;
57822;SDS011;43650;48.064;20.624;2023-08-21T01:43:53;12.27;;;10.55;;
57822;SDS011;43650;48.064;20.624;2023-08-21T01:44:53;13.07;;;10.87;;
57822;SDS011;43650;48.064;20.624;2023-08-21T01:45:54;14.00;;;10.68;;
57822;SDS011;43650;48.064;20.624;2023-08-21T01:46:55;16.12;;;10.68;;
57822;SDS011;43650;48.064;20.624;2023-08-21T01:47:55;16.37;;;10.93;;
57822;SDS011;43650;48.064;20.624;2023-08-21T01:48:56;14.77;;;10.87;;
57822;SDS011;43650;48.064;20.624;2023-08-21T01:49:56;14.10;;;9.87;;
57822;SDS011;43650;48.064;20.624;2023-08-21T01:50:56;18.80;;;11.30;;
57822;SDS011;43650;48.064;20.624;2023-08-21T01:51:57;14.00;;;11.47;;
57822;SDS011;43650;48.064;20.624;2023-08-21T01:52:57;19.90;;;11.47;;
57822;SDS011;43650;48.064;20.624;2023-08-21T01:53:58;17.87;;;11.55;;
57822;SDS011;43650;48.064;20.624;2023-08-21T01:54:59;13.70;;;11.47;;
57822;SDS011;43650;48.064;20.624;2023-08-21T01:55:59;13.98;;;10.38;;
57822;SDS011;43650;48.064;20.624;2023-08-21T01:57:00;12.43;;;10.63;;
57822;SDS011;43650;48.064;20.624;2023-08-21T01:58:00;17.50;;;10.90;;
57822;SDS011;43650;48.064;20.624;2023-08-21T01:59:01;13.43;;;10.67;;
57822;SDS011;43650;48.064;20.624;2023-08-21T02:00:01;16.43;;;11.10;;
57822;SDS011;43650;48.064;20.624;2023-08-21T02:01:04;15.35;;;10.93;;
57822;SDS011;43650;48.064;20.624;2023-08-21T02:02:05;15.40;;;10.93;;
57822;SDS011;43650;48.064;20.624;2023-08-21T02:03:05;13.57;;;10.77;;
57822;SDS011;43650;48.064;20.624;2023-08-21T02:04:06;14.40;;;10.77;;
57822;SDS011;43650;48.064;20.624;2023-08-21T02:05:06;13.90;;;11.20;;
57822;SDS011;43650;48.064;20.624;2023-08-21T02:06:07;15.00;;;11.17;;
57822;SDS011;43650;48.064;20.624;2023-08-21T02:07:07;14.80;;;10.50;;
57822;SDS011;43650;48.064;20.624;2023-08-21T02:08:09;16.63;;;10.50;;
57822;SDS011;43650;48.064;20.624;2023-08-21T02:09:12;14.45;;;10.98;;
57822;SDS011;43650;48.064;20.624;2023-08-21T02:10:12;18.13;;;10.73;;
57822;SDS011;43650;48.064;20.624;2023-08-21T02:11:13;14.77;;;10.70;;
57822;SDS011;43650;48.064;20.624;2023-08-21T02:12:14;13.93;;;10.90;;
57822;SDS011;43650;48.064;20.624;2023-08-21T02:13:14;13.13;;;10.63;;
57822;SDS011;43650;48.064;20.624;2023-08-21T02:14:14;15.63;;;11.47;;
57822;SDS011;43650;48.064;20.624;2023-08-21T02:15:15;14.07;;;11.00;;
57822;SDS011;43650;48.064;20.624;2023-08-21T02:16:15;13.30;;;10.73;;
57822;SDS011;43650;48.064;20.624;2023-08-21T02:17:16;13.27;;;11.20;;
57822;SDS011;43650;48.064;20.624;2023-08-21T02:18:16;12.03;;;10.20;;
57822;SDS011;43650;48.064;20.624;2023-08-21T02:19:16;17.43;;;10.87;;
57822;SDS011;43650;48.064;20.624;2023-08-21T02:20:17;13.10;;;10.60;;
57822;SDS011;43650;48.064;20.624;2023-08-21T02:21:17;11.90;;;10.35;;
57822;SDS011;43650;48.064;20.624;2023-08-21T02:22:18;13.47;;;10.00;;
57822;SDS011;43650;48.064;20.624;2023-08-21T02:23:18;20.60;;;11.47;;
57822;SDS011;43650;48.064;20.624;2023-08-21T02:24:19;13.87;;;10.50;;
57822;SDS011;43650;48.064;20.624;2023-08-21T02:25:19;12.27;;;9.93;;
57822;SDS011;43650;48.064;20.624;2023-08-21T02:26:19;14.73;;;10.33;;
57822;SDS011;43650;48.064;20.624;2023-08-21T02:27:20;20.43;;;11.17;;
57822;SDS011;43650;48.064;20.624;2023-08-21T02:28:20;13.47;;;10.73;;
57822;SDS011;43650;48.064;20.624;2023-08-21T02:29:21;14.13;;;9.10;;
57822;SDS011;43650;48.064;20.624;2023-08-21T02:30:21;13.93;;;10.73;;
57822;SDS011;43650;48.064;20.624;2023-08-21T02:31:25;14.90;;;11.25;;
57822;SDS011;43650;48.064;20.624;2023-08-21T02:32:25;14.10;;;9.67;;
57822;SDS011;43650;48.064;20.624;2023-08-21T02:33:26;12.23;;;9.87;;
57822;SDS011;43650;48.064;20.624;2023-08-21T02:34:26;13.03;;;10.23;;
57822;SDS011;43650;48.064;20.624;2023-08-21T02:35:27;16.98;;;9.50;;
57822;SDS011;43650;48.064;20.624;2023-08-21T02:36:27;15.20;;;10.80;;
57822;SDS011;43650;48.064;20.624;2023-08-21T02:37:28;12.90;;;10.02;;
57822;SDS011;43650;48.064;20.624;2023-08-21T02:38:28;11.97;;;10.23;;
57822;SDS011;43650;48.064;20.624;2023-08-21T02:39:28;11.70;;;9.23;;
57822;SDS011;43650;48.064;20.624;2023-08-21T02:40:29;14.73;;;9.93;;
57822;SDS011;43650;48.064;20.624;2023-08-21T02:41:29;14.13;;;10.90;;
57822;SDS011;43650;48.064;20.624;2023-08-21T02:42:30;15.63;;;10.33;;
57822;SDS011;43650;48.064;20.624;2023-08-21T02:43:30;10.20;;;8.33;;
57822;SDS011;43650;48.064;20.624;2023-08-21T02:44:30;12.30;;;9.83;;
57822;SDS011;43650;48.064;20.624;2023-08-21T02:45:31;11.13;;;8.97;;
57822;SDS011;43650;48.064;20.624;2023-08-21T02:46:31;13.97;;;10.13;;
57822;SDS011;43650;48.064;20.624;2023-08-21T02:47:37;14.45;;;10.20;;
57822;SDS011;43650;48.064;20.624;2023-08-21T02:48:38;16.08;;;10.05;;
57822;SDS011;43650;48.064;20.624;2023-08-21T02:49:38;12.00;;;9.47;;
57822;SDS011;43650;48.064;20.624;2023-08-21T02:50:39;10.87;;;8.47;;
57822;SDS011;43650;48.064;20.624;2023-08-21T02:51:39;15.50;;;9.77;;
57822;SDS011;43650;48.064;20.624;2023-08-21T02:52:40;12.30;;;8.63;;
57822;SDS011;43650;48.064;20.624;2023-08-21T02:53:40;12.13;;;8.90;;
57822;SDS011;43650;48.064;20.624;2023-08-21T02:54:41;11.13;;;9.57;;
57822;SDS011;43650;48.064;20.624;2023-08-21T02:55:41;12.82;;;10.05;;
57822;SDS011;43650;48.064;20.624;2023-08-21T02:56:42;11.30;;;9.27;;
57822;SDS011;43650;48.064;20.624;2023-08-21T02:57:42;11.50;;;8.53;;
57822;SDS011;43650;48.064;20.624;2023-08-21T02:58:42;14.30;;;10.07;;
57822;SDS011;43650;48.064;20.624;2023-08-21T02:59:43;13.97;;;8.87;;
57822;SDS011;43650;48.064;20.624;2023-08-21T03:00:43;16.17;;;9.97;;
57822;SDS011;43650;48.064;20.624;2023-08-21T03:01:44;12.50;;;10.00;;
57822;SDS011;43650;48.064;20.624;2023-08-21T03:02:44;15.07;;;9.90;;
57822;SDS011;43650;48.064;20.624;2023-08-21T03:03:44;11.30;;;9.03;;
57822;SDS011;43650;48.064;20.624;2023-08-21T03:04:45;13.37;;;9.40;;
57822;SDS011;43650;48.064;20.624;2023-08-21T03:05:45;14.23;;;9.32;;
57822;SDS011;43650;48.064;20.624;2023-08-21T03:06:46;13.97;;;8.63;;
57822;SDS011;43650;48.064;20.624;2023-08-21T03:07:46;11.27;;;9.43;;
57822;SDS011;43650;48.064;20.624;2023-08-21T03:08:47;11.37;;;9.00;;
57822;SDS011;43650;48.064;20.624;2023-08-21T03:09:47;13.13;;;9.63;;
57822;SDS011;43650;48.064;20.624;2023-08-21T03:10:48;11.70;;;8.82;;
57822;SDS011;43650;48.064;20.624;2023-08-21T03:11:48;12.00;;;8.70;;
57822;SDS011;43650;48.064;20.624;2023-08-21T03:12:49;13.53;;;10.30;;
57822;SDS011;43650;48.064;20.624;2023-08-21T03:13:49;13.57;;;8.98;;
57822;SDS011;43650;48.064;20.624;2023-08-21T03:14:50;11.03;;;8.80;;
57822;SDS011;43650;48.064;20.624;2023-08-21T03:15:50;10.87;;;9.00;;
57822;SDS011;43650;48.064;20.624;2023-08-21T03:16:51;10.23;;;8.10;;
57822;SDS011;43650;48.064;20.624;2023-08-21T03:17:51;13.27;;;8.73;;
57822;SDS011;43650;48.064;20.624;2023-08-21T03:18:58;10.00;;;8.57;;
57822;SDS011;43650;48.064;20.624;2023-08-21T03:20:00;13.18;;;8.27;;
57822;SDS011;43650;48.064;20.624;2023-08-21T03:21:00;12.52;;;9.82;;
57822;SDS011;43650;48.064;20.624;2023-08-21T03:22:01;10.97;;;8.80;;
57822;SDS011;43650;48.064;20.624;2023-08-21T03:23:01;11.00;;;8.57;;
57822;SDS011;43650;48.064;20.624;2023-08-21T03:24:01;11.80;;;9.30;;
57822;SDS011;43650;48.064;20.624;2023-08-21T03:25:02;11.23;;;8.63;;
57822;SDS011;43650;48.064;20.624;2023-08-21T03:26:03;10.65;;;8.05;;
57822;SDS011;43650;48.064;20.624;2023-08-21T03:27:03;11.30;;;9.20;;
57822;SDS011;43650;48.064;20.624;2023-08-21T03:28:04;11.53;;;8.33;;
57822;SDS011;43650;48.064;20.624;2023-08-21T03:29:04;11.90;;;9.70;;
57822;SDS011;43650;48.064;20.624;2023-08-21T03:30:05;12.05;;;8.85;;
57822;SDS011;43650;48.064;20.624;2023-08-21T03:31:07;12.55;;;8.77;;
57822;SDS011;43650;48.064;20.624;2023-08-21T03:32:07;10.05;;;8.55;;
57822;SDS011;43650;48.064;20.624;2023-08-21T03:33:08;12.93;;;9.10;;
57822;SDS011;43650;48.064;20.624;2023-08-21T03:34:08;11.70;;;9.13;;
57822;SDS011;43650;48.064;20.624;2023-08-21T03:35:09;11.47;;;8.43;;
57822;SDS011;43650;48.064;20.624;2023-08-21T03:36:09;11.60;;;8.53;;
57822;SDS011;43650;48.064;20.624;2023-08-21T03:37:10;10.93;;;8.77;;
57822;SDS011;43650;48.064;20.624;2023-08-21T03:38:10;11.48;;;8.77;;
57822;SDS011;43650;48.064;20.624;2023-08-21T03:39:11;11.13;;;8.57;;
57822;SDS011;43650;48.064;20.624;2023-08-21T03:40:11;11.90;;;8.80;;
57822;SDS011;43650;48.064;20.624;2023-08-21T03:41:12;14.15;;;8.85;;
57822;SDS011;43650;48.064;20.624;2023-08-21T03:42:12;10.37;;;8.10;;
57822;SDS011;43650;48.064;20.624;2023-08-21T03:43:13;12.37;;;9.00;;
57822;SDS011;43650;48.064;20.624;2023-08-21T03:44:13;10.33;;;8.87;;
57822;SDS011;43650;48.064;20.624;2023-08-21T03:45:14;12.57;;;9.23;;
57822;SDS011;43650;48.064;20.624;2023-08-21T03:46:14;11.37;;;7.97;;
57822;SDS011;43650;48.064;20.624;2023-08-21T03:47:15;11.07;;;8.47;;
57822;SDS011;43650;48.064;20.624;2023-08-21T03:48:15;13.05;;;8.93;;
57822;SDS011;43650;48.064;20.624;2023-08-21T03:49:16;10.70;;;8.03;;
57822;SDS011;43650;48.064;20.624;2023-08-21T03:50:16;13.33;;;8.40;;
57822;SDS011;43650;48.064;20.624;2023-08-21T03:51:17;11.83;;;8.90;;
57822;SDS011;43650;48.064;20.624;2023-08-21T03:52:17;10.97;;;8.23;;
57822;SDS011;43650;48.064;20.624;2023-08-21T03:53:18;10.87;;;8.10;;
57822;SDS011;43650;48.064;20.624;2023-08-21T03:54:18;13.70;;;8.77;;
57822;SDS011;43650;48.064;20.624;2023-08-21T03:55:19;9.90;;;8.20;;
57822;SDS011;43650;48.064;20.624;2023-08-21T03:56:19;11.97;;;8.73;;
57822;SDS011;43650;48.064;20.624;2023-08-21T03:57:19;15.47;;;8.67;;
57822;SDS011;43650;48.064;20.624;2023-08-21T03:58:20;10.87;;;7.93;;
57822;SDS011;43650;48.064;20.624;2023-08-21T03:59:20;11.27;;;8.40;;
57822;SDS011;43650;48.064;20.624;2023-08-21T04:00:22;9.93;;;7.87;;
57822;SDS011;43650;48.064;20.624;2023-08-21T04:01:23;14.73;;;8.70;;
57822;SDS011;43650;48.064;20.624;2023-08-21T04:02:23;10.87;;;8.57;;
57822;SDS011;43650;48.064;20.624;2023-08-21T04:03:24;11.43;;;8.53;;
57822;SDS011;43650;48.064;20.624;2023-08-21T04:04:24;11.12;;;8.20;;
57822;SDS011;43650;48.064;20.624;2023-08-21T04:05:25;12.23;;;8.73;;
57822;SDS011;43650;48.064;20.624;2023-08-21T04:06:25;11.40;;;8.43;;
57822;SDS011;43650;48.064;20.624;2023-08-21T04:07:25;24.93;;;9.37;;
57822;SDS011;43650;48.064;20.624;2023-08-21T04:08:26;14.27;;;9.07;;
57822;SDS011;43650;48.064;20.624;2023-08-21T04:09:26;14.67;;;8.70;;
57822;SDS011;43650;48.064;20.624;2023-08-21T04:10:27;15.00;;;8.30;;
57822;SDS011;43650;48.064;20.624;2023-08-21T04:11:27;11.13;;;8.37;;
57822;SDS011;43650;48.064;20.624;2023-08-21T04:13:29;13.35;;;8.32;;
57822;SDS011;43650;48.064;20.624;2023-08-21T04:14:29;11.70;;;9.07;;
57822;SDS011;43650;48.064;20.624;2023-08-21T04:15:30;13.60;;;8.03;;
57822;SDS011;43650;48.064;20.624;2023-08-21T04:16:31;12.73;;;8.68;;
57822;SDS011;43650;48.064;20.624;2023-08-21T04:17:31;12.17;;;8.90;;
57822;SDS011;43650;48.064;20.624;2023-08-21T04:18:31;16.23;;;8.80;;
57822;SDS011;43650;48.064;20.624;2023-08-21T04:19:32;21.17;;;9.17;;
57822;SDS011;43650;48.064;20.624;2023-08-21T04:20:34;11.43;;;9.05;;
57822;SDS011;43650;48.064;20.624;2023-08-21T04:21:34;13.87;;;8.40;;
57822;SDS011;43650;48.064;20.624;2023-08-21T04:22:34;12.20;;;8.70;;
57822;SDS011;43650;48.064;20.624;2023-08-21T04:23:35;11.77;;;8.30;;
57822;SDS011;43650;48.064;20.624;2023-08-21T04:24:36;12.75;;;8.55;;
57822;SDS011;43650;48.064;20.624;2023-08-21T04:25:36;15.67;;;8.83;;
57822;SDS011;43650;48.064;20.624;2023-08-21T04:26:37;13.90;;;8.80;;
57822;SDS011;43650;48.064;20.624;2023-08-21T04:27:37;15.03;;;8.77;;
57822;SDS011;43650;48.064;20.624;2023-08-21T04:28:38;14.95;;;8.95;;
57822;SDS011;43650;48.064;20.624;2023-08-21T04:29:38;12.10;;;8.20;;
57822;SDS011;43650;48.064;20.624;2023-08-21T04:30:42;11.85;;;8.43;;
57822;SDS011;43650;48.064;20.624;2023-08-21T04:31:42;11.88;;;8.93;;
57822;SDS011;43650;48.064;20.624;2023-08-21T04:32:42;9.87;;;8.60;;
57822;SDS011;43650;48.064;20.624;2023-08-21T04:33:43;13.10;;;9.30;;
57822;SDS011;43650;48.064;20.624;2023-08-21T04:34:43;16.33;;;8.00;;
57822;SDS011;43650;48.064;20.624;2023-08-21T04:35:44;12.60;;;9.27;;
57822;SDS011;43650;48.064;20.624;2023-08-21T04:36:44;13.40;;;8.50;;
57822;SDS011;43650;48.064;20.624;2023-08-21T04:37:47;14.27;;;8.03;;
57822;SDS011;43650;48.064;20.624;2023-08-21T04:38:47;13.88;;;8.77;;
57822;SDS011;43650;48.064;20.624;2023-08-21T04:39:51;10.97;;;8.70;;
57822;SDS011;43650;48.064;20.624;2023-08-21T04:40:52;9.18;;;7.93;;
57822;SDS011;43650;48.064;20.624;2023-08-21T04:41:53;18.10;;;9.07;;
57822;SDS011;43650;48.064;20.624;2023-08-21T04:42:53;13.90;;;8.82;;
57822;SDS011;43650;48.064;20.624;2023-08-21T04:43:54;15.10;;;8.23;;
57822;SDS011;43650;48.064;20.624;2023-08-21T04:44:54;12.53;;;9.13;;
57822;SDS011;43650;48.064;20.624;2023-08-21T04:45:55;12.00;;;8.50;;
57822;SDS011;43650;48.064;20.624;2023-08-21T04:46:55;9.17;;;7.43;;
57822;SDS011;43650;48.064;20.624;2023-08-21T04:47:55;13.70;;;8.73;;
57822;SDS011;43650;48.064;20.624;2023-08-21T04:48:56;10.07;;;8.33;;
57822;SDS011;43650;48.064;20.624;2023-08-21T04:49:56;10.55;;;8.30;;
57822;SDS011;43650;48.064;20.624;2023-08-21T04:50:57;11.93;;;8.35;;
57822;SDS011;43650;48.064;20.624;2023-08-21T04:51:57;14.10;;;8.37;;
57822;SDS011;43650;48.064;20.624;2023-08-21T04:52:58;13.53;;;8.67;;
57822;SDS011;43650;48.064;20.624;2023-08-21T04:53:58;11.50;;;8.27;;
57822;SDS011;43650;48.064;20.624;2023-08-21T04:54:59;10.23;;;7.70;;
57822;SDS011;43650;48.064;20.624;2023-08-21T04:56:00;18.17;;;8.03;;
57822;SDS011;43650;48.064;20.624;2023-08-21T04:57:00;11.37;;;8.57;;
57822;SDS011;43650;48.064;20.624;2023-08-21T04:58:00;11.10;;;8.80;;
57822;SDS011;43650;48.064;20.624;2023-08-21T04:59:01;12.47;;;9.63;;
57822;SDS011;43650;48.064;20.624;2023-08-21T05:00:02;9.70;;;7.78;;
57822;SDS011;43650;48.064;20.624;2023-08-21T05:01:06;11.98;;;8.10;;
57822;SDS011;43650;48.064;20.624;2023-08-21T05:02:07;19.00;;;8.73;;
57822;SDS011;43650;48.064;20.624;2023-08-21T05:03:07;10.37;;;8.23;;
57822;SDS011;43650;48.064;20.624;2023-08-21T05:04:09;13.10;;;8.45;;
57822;SDS011;43650;48.064;20.624;2023-08-21T05:05:09;11.93;;;8.70;;
57822;SDS011;43650;48.064;20.624;2023-08-21T05:06:10;11.48;;;8.05;;
57822;SDS011;43650;48.064;20.624;2023-08-21T05:07:10;11.40;;;8.43;;
57822;SDS011;43650;48.064;20.624;2023-08-21T05:08:11;12.90;;;8.38;;
57822;SDS011;43650;48.064;20.624;2023-08-21T05:09:11;10.50;;;8.13;;
57822;SDS011;43650;48.064;20.624;2023-08-21T05:10:12;11.27;;;8.03;;
57822;SDS011;43650;48.064;20.624;2023-08-21T05:11:12;10.70;;;7.43;;
57822;SDS011;43650;48.064;20.624;2023-08-21T05:12:13;13.40;;;8.60;;
57822;SDS011;43650;48.064;20.624;2023-08-21T05:13:13;15.43;;;8.17;;
57822;SDS011;43650;48.064;20.624;2023-08-21T05:14:17;12.70;;;8.32;;
57822;SDS011;43650;48.064;20.624;2023-08-21T05:15:19;9.98;;;8.10;;
57822;SDS011;43650;48.064;20.624;2023-08-21T05:16:19;11.40;;;8.27;;
57822;SDS011;43650;48.064;20.624;2023-08-21T05:17:20;12.80;;;8.67;;
57822;SDS011;43650;48.064;20.624;2023-08-21T05:18:21;9.47;;;7.83;;
57822;SDS011;43650;48.064;20.624;2023-08-21T05:19:21;10.07;;;7.62;;
57822;SDS011;43650;48.064;20.624;2023-08-21T05:20:22;16.53;;;8.10;;
57822;SDS011;43650;48.064;20.624;2023-08-21T05:21:22;10.77;;;8.03;;
57822;SDS011;43650;48.064;20.624;2023-08-21T05:22:23;9.20;;;7.87;;
57822;SDS011;43650;48.064;20.624;2023-08-21T05:23:23;10.53;;;8.37;;
57822;SDS011;43650;48.064;20.624;2023-08-21T05:24:23;11.87;;;7.83;;
57822;SDS011;43650;48.064;20.624;2023-08-21T05:25:24;16.33;;;8.60;;
57822;SDS011;43650;48.064;20.624;2023-08-21T05:26:24;14.37;;;10.13;;
57822;SDS011;43650;48.064;20.624;2023-08-21T05:27:25;12.20;;;7.30;;
57822;SDS011;43650;48.064;20.624;2023-08-21T05:28:25;11.13;;;7.53;;
57822;SDS011;43650;48.064;20.624;2023-08-21T05:29:26;11.53;;;7.83;;
57822;SDS011;43650;48.064;20.624;2023-08-21T05:30:26;11.90;;;8.13;;
57822;SDS011;43650;48.064;20.624;2023-08-21T05:31:27;9.45;;;7.50;;
57822;SDS011;43650;48.064;20.624;2023-08-21T05:32:27;10.63;;;7.20;;
57822;SDS011;43650;48.064;20.624;2023-08-21T05:33:28;10.40;;;8.25;;
57822;SDS011;43650;48.064;20.624;2023-08-21T05:34:28;18.12;;;8.68;;
57822;SDS011;43650;48.064;20.624;2023-08-21T05:35:29;9.80;;;7.73;;
57822;SDS011;43650;48.064;20.624;2023-08-21T05:36:33;10.15;;;7.30;;
57822;SDS011;43650;48.064;20.624;2023-08-21T05:37:33;9.10;;;7.37;;
57822;SDS011;43650;48.064;20.624;2023-08-21T05:38:34;10.70;;;7.43;;
57822;SDS011;43650;48.064;20.624;2023-08-21T05:39:34;11.50;;;7.90;;
57822;SDS011;43650;48.064;20.624;2023-08-21T05:40:35;11.53;;;8.70;;
57822;SDS011;43650;48.064;20.624;2023-08-21T05:41:35;10.73;;;7.87;;
57822;SDS011;43650;48.064;20.624;2023-08-21T05:43:37;12.02;;;7.30;;
57822;SDS011;43650;48.064;20.624;2023-08-21T05:44:39;12.32;;;7.90;;
57822;SDS011;43650;48.064;20.624;2023-08-21T05:45:39;10.73;;;7.60;;
57822;SDS011;43650;48.064;20.624;2023-08-21T05:46:40;13.37;;;7.90;;
57822;SDS011;43650;48.064;20.624;2023-08-21T05:47:40;18.40;;;14.27;;
57822;SDS011;43650;48.064;20.624;2023-08-21T05:48:41;15.40;;;13.70;;
57822;SDS011;43650;48.064;20.624;2023-08-21T05:49:41;12.17;;;8.70;;
57822;SDS011;43650;48.064;20.624;2023-08-21T05:50:42;11.87;;;9.60;;
57822;SDS011;43650;48.064;20.624;2023-08-21T05:51:42;9.60;;;8.20;;
57822;SDS011;43650;48.064;20.624;2023-08-21T05:52:42;9.88;;;8.23;;
57822;SDS011;43650;48.064;20.624;2023-08-21T05:53:43;9.40;;;7.80;;
57822;SDS011;43650;48.064;20.624;2023-08-21T05:54:43;10.95;;;9.00;;
57822;SDS011;43650;48.064;20.624;2023-08-21T05:55:44;11.77;;;8.43;;
57822;SDS011;43650;48.064;20.624;2023-08-21T05:56:44;11.00;;;8.40;;
57822;SDS011;43650;48.064;20.624;2023-08-21T05:57:45;13.25;;;8.23;;
57822;SDS011;43650;48.064;20.624;2023-08-21T05:58:45;8.47;;;7.57;;
57822;SDS011;43650;48.064;20.624;2023-08-21T05:59:46;9.30;;;7.87;;
57822;SDS011;43650;48.064;20.624;2023-08-21T06:00:47;12.35;;;8.98;;
57822;SDS011;43650;48.064;20.624;2023-08-21T06:01:47;10.07;;;8.13;;
57822;SDS011;43650;48.064;20.624;2023-08-21T06:02:48;11.67;;;8.57;;